sensor_id;sensor_type;location;lat;lon;timestamp;P1;durP1;ratioP1;P2;durP2;ratioP2
823;SDS011;373;49.342;8.146;2023-04-25T00:00:47;3.15;;;2.03;;
823;SDS011;373;49.342;8.146;2023-04-25T00:03:15;2.28;;;2.17;;
823;SDS011;373;49.342;8.146;2023-04-25T00:05:43;2.35;;;2.15;;
823;SDS011;373;49.342;8.146;2023-04-25T00:08:10;3.28;;;2.97;;
823;SDS011;373;49.342;8.146;2023-04-25T00:10:37;2.45;;;2.25;;
823;SDS011;373;49.342;8.146;2023-04-25T00:13:04;2.50;;;2.30;;
823;SDS011;373;49.342;8.146;2023-04-25T00:15:33;2.33;;;2.13;;
823;SDS011;373;49.342;8.146;2023-04-25T00:18:01;2.50;;;2.33;;
823;SDS011;373;49.342;8.146;2023-04-25T00:20:29;2.53;;;2.33;;
823;SDS011;373;49.342;8.146;2023-04-25T00:22:57;2.53;;;2.33;;
823;SDS011;373;49.342;8.146;2023-04-25T00:25:24;3.42;;;2.38;;
823;SDS011;373;49.342;8.146;2023-04-25T00:27:51;2.47;;;2.28;;
823;SDS011;373;49.342;8.146;2023-04-25T00:30:18;3.45;;;3.15;;
823;SDS011;373;49.342;8.146;2023-04-25T00:32:45;2.80;;;2.60;;
823;SDS011;373;49.342;8.146;2023-04-25T00:35:13;2.88;;;2.65;;
823;SDS011;373;49.342;8.146;2023-04-25T00:37:41;2.70;;;2.50;;
823;SDS011;373;49.342;8.146;2023-04-25T00:40:08;2.78;;;2.58;;
823;SDS011;373;49.342;8.146;2023-04-25T00:42:36;2.75;;;2.55;;
823;SDS011;373;49.342;8.146;2023-04-25T00:45:05;3.30;;;3.00;;
823;SDS011;373;49.342;8.146;2023-04-25T00:47:33;3.45;;;3.15;;
823;SDS011;373;49.342;8.146;2023-04-25T00:50:02;3.65;;;3.35;;
823;SDS011;373;49.342;8.146;2023-04-25T00:52:29;4.55;;;2.92;;
823;SDS011;373;49.342;8.146;2023-04-25T00:54:58;3.13;;;2.63;;
823;SDS011;373;49.342;8.146;2023-04-25T00:57:26;3.85;;;3.45;;
823;SDS011;373;49.342;8.146;2023-04-25T00:59:55;3.67;;;2.88;;
823;SDS011;373;49.342;8.146;2023-04-25T01:02:22;2.92;;;2.72;;
823;SDS011;373;49.342;8.146;2023-04-25T01:04:50;3.20;;;2.90;;
823;SDS011;373;49.342;8.146;2023-04-25T01:07:18;3.78;;;3.35;;
823;SDS011;373;49.342;8.146;2023-04-25T01:09:46;4.78;;;3.55;;
823;SDS011;373;49.342;8.146;2023-04-25T01:12:15;3.95;;;3.40;;
823;SDS011;373;49.342;8.146;2023-04-25T01:14:42;3.40;;;3.13;;
823;SDS011;373;49.342;8.146;2023-04-25T01:17:09;3.67;;;3.38;;
823;SDS011;373;49.342;8.146;2023-04-25T01:19:36;4.38;;;3.97;;
823;SDS011;373;49.342;8.146;2023-04-25T01:22:05;3.55;;;3.30;;
823;SDS011;373;49.342;8.146;2023-04-25T01:24:35;3.92;;;3.63;;
823;SDS011;373;49.342;8.146;2023-04-25T01:27:03;3.58;;;3.28;;
823;SDS011;373;49.342;8.146;2023-04-25T01:29:32;3.65;;;3.35;;
823;SDS011;373;49.342;8.146;2023-04-25T01:31:59;4.05;;;3.40;;
823;SDS011;373;49.342;8.146;2023-04-25T01:34:27;3.70;;;3.40;;
823;SDS011;373;49.342;8.146;2023-04-25T01:36:56;4.25;;;3.25;;
823;SDS011;373;49.342;8.146;2023-04-25T01:39:28;3.95;;;3.65;;
823;SDS011;373;49.342;8.146;2023-04-25T01:41:56;3.60;;;3.30;;
823;SDS011;373;49.342;8.146;2023-04-25T01:44:23;3.40;;;3.20;;
823;SDS011;373;49.342;8.146;2023-04-25T01:46:50;4.00;;;3.70;;
823;SDS011;373;49.342;8.146;2023-04-25T01:49:17;4.38;;;3.85;;
823;SDS011;373;49.342;8.146;2023-04-25T01:51:45;3.72;;;3.17;;
823;SDS011;373;49.342;8.146;2023-04-25T01:54:12;2.80;;;2.60;;
823;SDS011;373;49.342;8.146;2023-04-25T01:56:41;2.20;;;2.08;;
823;SDS011;373;49.342;8.146;2023-04-25T01:59:10;2.53;;;1.90;;
823;SDS011;373;49.342;8.146;2023-04-25T02:01:50;2.67;;;1.77;;
823;SDS011;373;49.342;8.146;2023-04-25T02:04:27;2.38;;;1.92;;
823;SDS011;373;49.342;8.146;2023-04-25T02:06:54;2.17;;;1.90;;
823;SDS011;373;49.342;8.146;2023-04-25T02:09:23;2.03;;;1.90;;
823;SDS011;373;49.342;8.146;2023-04-25T02:11:56;2.70;;;2.50;;
823;SDS011;373;49.342;8.146;2023-04-25T02:14:43;2.75;;;2.35;;
823;SDS011;373;49.342;8.146;2023-04-25T02:17:15;3.28;;;3.00;;
823;SDS011;373;49.342;8.146;2023-04-25T02:19:43;2.67;;;2.47;;
823;SDS011;373;49.342;8.146;2023-04-25T02:22:11;2.90;;;2.70;;
823;SDS011;373;49.342;8.146;2023-04-25T02:24:39;2.85;;;2.65;;
823;SDS011;373;49.342;8.146;2023-04-25T02:27:07;3.22;;;3.03;;
823;SDS011;373;49.342;8.146;2023-04-25T02:29:35;3.75;;;3.45;;
823;SDS011;373;49.342;8.146;2023-04-25T02:32:05;3.13;;;2.92;;
823;SDS011;373;49.342;8.146;2023-04-25T02:34:32;3.33;;;3.10;;
823;SDS011;373;49.342;8.146;2023-04-25T02:36:59;3.15;;;2.85;;
823;SDS011;373;49.342;8.146;2023-04-25T02:39:27;3.25;;;2.95;;
823;SDS011;373;49.342;8.146;2023-04-25T02:41:54;3.45;;;3.15;;
823;SDS011;373;49.342;8.146;2023-04-25T02:44:23;3.10;;;2.90;;
823;SDS011;373;49.342;8.146;2023-04-25T02:46:50;3.55;;;3.25;;
823;SDS011;373;49.342;8.146;2023-04-25T02:49:17;3.30;;;3.05;;
823;SDS011;373;49.342;8.146;2023-04-25T02:51:44;3.17;;;2.97;;
823;SDS011;373;49.342;8.146;2023-04-25T02:54:11;3.30;;;3.10;;
823;SDS011;373;49.342;8.146;2023-04-25T02:56:42;3.90;;;3.60;;
823;SDS011;373;49.342;8.146;2023-04-25T02:59:22;5.15;;;3.35;;
823;SDS011;373;49.342;8.146;2023-04-25T03:01:49;2.95;;;2.75;;
823;SDS011;373;49.342;8.146;2023-04-25T03:04:16;3.55;;;3.35;;
823;SDS011;373;49.342;8.146;2023-04-25T03:06:44;3.60;;;2.90;;
823;SDS011;373;49.342;8.146;2023-04-25T03:09:11;4.38;;;3.97;;
823;SDS011;373;49.342;8.146;2023-04-25T03:11:39;3.35;;;3.05;;
823;SDS011;373;49.342;8.146;2023-04-25T03:14:06;4.45;;;4.13;;
823;SDS011;373;49.342;8.146;2023-04-25T03:16:35;3.83;;;3.42;;
823;SDS011;373;49.342;8.146;2023-04-25T03:19:02;3.95;;;3.65;;
823;SDS011;373;49.342;8.146;2023-04-25T03:21:29;4.35;;;4.05;;
823;SDS011;373;49.342;8.146;2023-04-25T03:23:58;4.15;;;3.85;;
823;SDS011;373;49.342;8.146;2023-04-25T03:26:26;4.15;;;3.78;;
823;SDS011;373;49.342;8.146;2023-04-25T03:28:54;4.88;;;4.47;;
823;SDS011;373;49.342;8.146;2023-04-25T03:31:21;4.45;;;4.05;;
823;SDS011;373;49.342;8.146;2023-04-25T03:33:50;4.43;;;4.03;;
823;SDS011;373;49.342;8.146;2023-04-25T03:36:19;5.13;;;4.63;;
823;SDS011;373;49.342;8.146;2023-04-25T03:38:47;4.10;;;3.70;;
823;SDS011;373;49.342;8.146;2023-04-25T03:41:16;3.90;;;3.60;;
823;SDS011;373;49.342;8.146;2023-04-25T03:43:50;4.72;;;4.18;;
823;SDS011;373;49.342;8.146;2023-04-25T03:46:18;4.38;;;3.97;;
823;SDS011;373;49.342;8.146;2023-04-25T03:48:46;4.25;;;3.85;;
823;SDS011;373;49.342;8.146;2023-04-25T03:51:21;3.83;;;3.53;;
823;SDS011;373;49.342;8.146;2023-04-25T03:53:49;4.43;;;4.03;;
823;SDS011;373;49.342;8.146;2023-04-25T03:56:19;3.95;;;3.58;;
823;SDS011;373;49.342;8.146;2023-04-25T03:58:52;3.70;;;3.40;;
823;SDS011;373;49.342;8.146;2023-04-25T04:01:22;3.72;;;3.42;;
823;SDS011;373;49.342;8.146;2023-04-25T04:03:49;3.75;;;3.45;;
823;SDS011;373;49.342;8.146;2023-04-25T04:06:16;3.78;;;3.53;;
823;SDS011;373;49.342;8.146;2023-04-25T04:08:49;4.28;;;3.78;;
823;SDS011;373;49.342;8.146;2023-04-25T04:11:16;3.92;;;3.63;;
823;SDS011;373;49.342;8.146;2023-04-25T04:13:44;4.47;;;4.07;;
823;SDS011;373;49.342;8.146;2023-04-25T04:16:11;4.40;;;4.00;;
823;SDS011;373;49.342;8.146;2023-04-25T04:18:38;4.43;;;4.03;;
823;SDS011;373;49.342;8.146;2023-04-25T04:21:05;3.90;;;3.60;;
823;SDS011;373;49.342;8.146;2023-04-25T04:23:35;4.15;;;3.75;;
823;SDS011;373;49.342;8.146;2023-04-25T04:26:04;4.43;;;4.03;;
823;SDS011;373;49.342;8.146;2023-04-25T04:28:42;3.85;;;3.58;;
823;SDS011;373;49.342;8.146;2023-04-25T04:31:32;6.28;;;4.22;;
823;SDS011;373;49.342;8.146;2023-04-25T04:34:00;4.90;;;4.45;;
823;SDS011;373;49.342;8.146;2023-04-25T04:36:28;4.95;;;4.45;;
823;SDS011;373;49.342;8.146;2023-04-25T04:38:56;5.25;;;4.82;;
823;SDS011;373;49.342;8.146;2023-04-25T04:41:36;4.93;;;4.50;;
823;SDS011;373;49.342;8.146;2023-04-25T04:44:31;5.47;;;4.95;;
823;SDS011;373;49.342;8.146;2023-04-25T04:47:23;5.93;;;5.43;;
823;SDS011;373;49.342;8.146;2023-04-25T04:50:14;6.10;;;5.60;;
823;SDS011;373;49.342;8.146;2023-04-25T04:53:13;5.97;;;5.43;;
823;SDS011;373;49.342;8.146;2023-04-25T04:55:51;6.05;;;5.45;;
823;SDS011;373;49.342;8.146;2023-04-25T04:58:31;6.80;;;6.18;;
823;SDS011;373;49.342;8.146;2023-04-25T05:01:07;6.50;;;5.90;;
823;SDS011;373;49.342;8.146;2023-04-25T05:03:53;5.78;;;5.30;;
823;SDS011;373;49.342;8.146;2023-04-25T05:06:43;6.68;;;5.97;;
823;SDS011;373;49.342;8.146;2023-04-25T05:09:29;6.75;;;6.18;;
823;SDS011;373;49.342;8.146;2023-04-25T05:12:16;7.57;;;6.35;;
823;SDS011;373;49.342;8.146;2023-04-25T05:14:54;6.55;;;5.95;;
823;SDS011;373;49.342;8.146;2023-04-25T05:17:40;8.23;;;7.10;;
823;SDS011;373;49.342;8.146;2023-04-25T05:20:24;6.45;;;5.85;;
823;SDS011;373;49.342;8.146;2023-04-25T05:23:13;7.03;;;6.35;;
823;SDS011;373;49.342;8.146;2023-04-25T05:26:13;6.78;;;6.18;;
823;SDS011;373;49.342;8.146;2023-04-25T05:29:02;6.93;;;6.35;;
823;SDS011;373;49.342;8.146;2023-04-25T05:31:38;5.97;;;5.45;;
823;SDS011;373;49.342;8.146;2023-04-25T05:34:11;7.47;;;6.35;;
823;SDS011;373;49.342;8.146;2023-04-25T05:36:53;6.03;;;5.50;;
823;SDS011;373;49.342;8.146;2023-04-25T05:39:20;5.95;;;5.38;;
823;SDS011;373;49.342;8.146;2023-04-25T05:42:06;5.88;;;5.38;;
823;SDS011;373;49.342;8.146;2023-04-25T05:44:52;5.95;;;5.45;;
823;SDS011;373;49.342;8.146;2023-04-25T05:47:33;6.78;;;6.15;;
823;SDS011;373;49.342;8.146;2023-04-25T05:50:14;5.60;;;5.10;;
823;SDS011;373;49.342;8.146;2023-04-25T05:52:52;5.75;;;5.25;;
823;SDS011;373;49.342;8.146;2023-04-25T05:55:24;5.95;;;4.95;;
823;SDS011;373;49.342;8.146;2023-04-25T05:57:54;4.65;;;4.35;;
823;SDS011;373;49.342;8.146;2023-04-25T06:00:23;5.57;;;5.10;;
823;SDS011;373;49.342;8.146;2023-04-25T06:02:55;4.80;;;4.32;;
823;SDS011;373;49.342;8.146;2023-04-25T06:05:59;6.68;;;5.63;;
823;SDS011;373;49.342;8.146;2023-04-25T06:08:42;6.25;;;5.57;;
823;SDS011;373;49.342;8.146;2023-04-25T06:11:13;6.13;;;5.60;;
823;SDS011;373;49.342;8.146;2023-04-25T06:13:42;6.53;;;5.93;;
823;SDS011;373;49.342;8.146;2023-04-25T06:16:11;5.43;;;4.82;;
823;SDS011;373;49.342;8.146;2023-04-25T06:18:40;5.13;;;4.72;;
823;SDS011;373;49.342;8.146;2023-04-25T06:21:08;6.40;;;5.45;;
823;SDS011;373;49.342;8.146;2023-04-25T06:23:36;5.13;;;4.72;;
823;SDS011;373;49.342;8.146;2023-04-25T06:26:06;6.45;;;5.95;;
823;SDS011;373;49.342;8.146;2023-04-25T06:28:36;6.97;;;6.38;;
823;SDS011;373;49.342;8.146;2023-04-25T06:33:56;6.65;;;6.05;;
823;SDS011;373;49.342;8.146;2023-04-25T06:36:25;6.45;;;5.85;;
823;SDS011;373;49.342;8.146;2023-04-25T06:38:59;6.50;;;6.00;;
823;SDS011;373;49.342;8.146;2023-04-25T06:41:26;7.25;;;6.55;;
823;SDS011;373;49.342;8.146;2023-04-25T06:43:57;7.53;;;6.88;;
823;SDS011;373;49.342;8.146;2023-04-25T06:46:35;6.25;;;5.75;;
823;SDS011;373;49.342;8.146;2023-04-25T06:49:04;7.50;;;6.80;;
823;SDS011;373;49.342;8.146;2023-04-25T06:51:32;7.63;;;6.88;;
823;SDS011;373;49.342;8.146;2023-04-25T06:53:59;7.78;;;6.97;;
823;SDS011;373;49.342;8.146;2023-04-25T06:56:41;7.88;;;7.18;;
823;SDS011;373;49.342;8.146;2023-04-25T06:59:12;7.57;;;6.95;;
823;SDS011;373;49.342;8.146;2023-04-25T07:01:40;8.55;;;7.85;;
823;SDS011;373;49.342;8.146;2023-04-25T07:04:18;7.88;;;7.18;;
823;SDS011;373;49.342;8.146;2023-04-25T07:06:49;7.55;;;6.85;;
823;SDS011;373;49.342;8.146;2023-04-25T07:09:21;8.05;;;7.38;;
823;SDS011;373;49.342;8.146;2023-04-25T07:11:49;7.95;;;7.20;;
823;SDS011;373;49.342;8.146;2023-04-25T07:14:17;8.00;;;7.30;;
823;SDS011;373;49.342;8.146;2023-04-25T07:16:44;7.90;;;7.20;;
823;SDS011;373;49.342;8.146;2023-04-25T07:19:12;7.20;;;6.50;;
823;SDS011;373;49.342;8.146;2023-04-25T07:21:40;7.63;;;6.93;;
823;SDS011;373;49.342;8.146;2023-04-25T07:24:07;7.30;;;6.60;;
823;SDS011;373;49.342;8.146;2023-04-25T07:26:39;6.72;;;6.20;;
823;SDS011;373;49.342;8.146;2023-04-25T07:29:19;6.65;;;6.05;;
823;SDS011;373;49.342;8.146;2023-04-25T07:31:46;7.80;;;6.90;;
823;SDS011;373;49.342;8.146;2023-04-25T07:34:13;8.52;;;6.30;;
823;SDS011;373;49.342;8.146;2023-04-25T07:36:42;8.27;;;6.35;;
823;SDS011;373;49.342;8.146;2023-04-25T07:39:10;7.03;;;4.75;;
823;SDS011;373;49.342;8.146;2023-04-25T07:41:38;7.45;;;4.15;;
823;SDS011;373;49.342;8.146;2023-04-25T07:44:07;7.65;;;5.10;;
823;SDS011;373;49.342;8.146;2023-04-25T07:46:34;7.30;;;4.93;;
823;SDS011;373;49.342;8.146;2023-04-25T07:49:03;10.18;;;5.22;;
823;SDS011;373;49.342;8.146;2023-04-25T07:51:30;10.32;;;5.20;;
823;SDS011;373;49.342;8.146;2023-04-25T07:54:04;8.98;;;5.60;;
823;SDS011;373;49.342;8.146;2023-04-25T07:56:35;7.75;;;4.90;;
823;SDS011;373;49.342;8.146;2023-04-25T07:59:02;5.78;;;4.50;;
823;SDS011;373;49.342;8.146;2023-04-25T08:01:29;8.48;;;5.28;;
823;SDS011;373;49.342;8.146;2023-04-25T08:04:00;7.90;;;4.55;;
823;SDS011;373;49.342;8.146;2023-04-25T08:06:53;7.15;;;4.60;;
823;SDS011;373;49.342;8.146;2023-04-25T08:09:29;6.70;;;4.70;;
823;SDS011;373;49.342;8.146;2023-04-25T08:12:02;8.23;;;4.90;;
823;SDS011;373;49.342;8.146;2023-04-25T08:14:31;10.88;;;5.60;;
823;SDS011;373;49.342;8.146;2023-04-25T08:17:02;6.63;;;5.57;;
823;SDS011;373;49.342;8.146;2023-04-25T08:19:34;8.20;;;5.45;;
823;SDS011;373;49.342;8.146;2023-04-25T08:22:01;8.70;;;6.05;;
823;SDS011;373;49.342;8.146;2023-04-25T08:24:40;7.63;;;5.00;;
823;SDS011;373;49.342;8.146;2023-04-25T08:27:08;10.30;;;5.25;;
823;SDS011;373;49.342;8.146;2023-04-25T08:29:36;8.35;;;5.97;;
823;SDS011;373;49.342;8.146;2023-04-25T08:32:03;7.07;;;5.50;;
823;SDS011;373;49.342;8.146;2023-04-25T08:34:33;8.65;;;5.20;;
823;SDS011;373;49.342;8.146;2023-04-25T08:37:03;8.57;;;5.70;;
823;SDS011;373;49.342;8.146;2023-04-25T08:39:49;7.65;;;5.50;;
823;SDS011;373;49.342;8.146;2023-04-25T08:42:46;8.23;;;6.43;;
823;SDS011;373;49.342;8.146;2023-04-25T08:45:17;11.32;;;5.40;;
823;SDS011;373;49.342;8.146;2023-04-25T08:47:45;8.77;;;5.53;;
823;SDS011;373;49.342;8.146;2023-04-25T08:50:14;11.75;;;6.10;;
823;SDS011;373;49.342;8.146;2023-04-25T08:52:43;9.40;;;6.32;;
823;SDS011;373;49.342;8.146;2023-04-25T08:55:13;9.48;;;6.38;;
823;SDS011;373;49.342;8.146;2023-04-25T08:57:41;11.10;;;6.90;;
823;SDS011;373;49.342;8.146;2023-04-25T09:00:09;10.52;;;6.50;;
823;SDS011;373;49.342;8.146;2023-04-25T09:02:39;11.10;;;6.53;;
823;SDS011;373;49.342;8.146;2023-04-25T09:05:07;11.82;;;8.18;;
823;SDS011;373;49.342;8.146;2023-04-25T09:07:36;12.57;;;6.95;;
823;SDS011;373;49.342;8.146;2023-04-25T09:10:04;9.18;;;6.40;;
823;SDS011;373;49.342;8.146;2023-04-25T09:12:36;7.97;;;6.43;;
823;SDS011;373;49.342;8.146;2023-04-25T09:15:06;8.98;;;6.43;;
823;SDS011;373;49.342;8.146;2023-04-25T09:17:55;11.35;;;8.55;;
823;SDS011;373;49.342;8.146;2023-04-25T09:20:23;10.77;;;7.05;;
823;SDS011;373;49.342;8.146;2023-04-25T09:23:00;10.77;;;8.27;;
823;SDS011;373;49.342;8.146;2023-04-25T09:25:33;9.07;;;7.25;;
823;SDS011;373;49.342;8.146;2023-04-25T09:28:06;10.30;;;7.40;;
823;SDS011;373;49.342;8.146;2023-04-25T09:30:34;12.80;;;9.30;;
823;SDS011;373;49.342;8.146;2023-04-25T09:33:17;10.10;;;7.72;;
823;SDS011;373;49.342;8.146;2023-04-25T09:35:48;9.32;;;7.20;;
823;SDS011;373;49.342;8.146;2023-04-25T09:38:40;10.48;;;7.32;;
823;SDS011;373;49.342;8.146;2023-04-25T09:41:21;7.72;;;6.93;;
823;SDS011;373;49.342;8.146;2023-04-25T09:43:51;10.50;;;6.82;;
823;SDS011;373;49.342;8.146;2023-04-25T09:46:18;8.80;;;7.65;;
823;SDS011;373;49.342;8.146;2023-04-25T09:48:50;9.68;;;7.22;;
823;SDS011;373;49.342;8.146;2023-04-25T09:51:26;8.23;;;6.53;;
823;SDS011;373;49.342;8.146;2023-04-25T09:53:55;8.18;;;6.78;;
823;SDS011;373;49.342;8.146;2023-04-25T09:56:41;9.25;;;7.53;;
823;SDS011;373;49.342;8.146;2023-04-25T09:59:10;10.18;;;8.30;;
823;SDS011;373;49.342;8.146;2023-04-25T10:01:39;10.55;;;8.98;;
823;SDS011;373;49.342;8.146;2023-04-25T10:04:13;9.63;;;8.23;;
823;SDS011;373;49.342;8.146;2023-04-25T10:06:50;11.10;;;9.10;;
823;SDS011;373;49.342;8.146;2023-04-25T10:09:20;9.00;;;7.25;;
823;SDS011;373;49.342;8.146;2023-04-25T10:11:50;12.00;;;7.60;;
823;SDS011;373;49.342;8.146;2023-04-25T10:14:20;9.05;;;6.63;;
823;SDS011;373;49.342;8.146;2023-04-25T10:16:49;10.85;;;7.18;;
823;SDS011;373;49.342;8.146;2023-04-25T10:19:20;11.02;;;7.53;;
823;SDS011;373;49.342;8.146;2023-04-25T10:21:49;10.98;;;7.38;;
823;SDS011;373;49.342;8.146;2023-04-25T10:24:19;9.07;;;7.90;;
823;SDS011;373;49.342;8.146;2023-04-25T10:26:46;11.23;;;8.07;;
823;SDS011;373;49.342;8.146;2023-04-25T10:29:22;11.57;;;7.35;;
823;SDS011;373;49.342;8.146;2023-04-25T10:31:51;9.40;;;7.07;;
823;SDS011;373;49.342;8.146;2023-04-25T10:34:19;8.38;;;7.53;;
823;SDS011;373;49.342;8.146;2023-04-25T10:36:51;8.05;;;6.70;;
823;SDS011;373;49.342;8.146;2023-04-25T10:39:23;9.20;;;6.50;;
823;SDS011;373;49.342;8.146;2023-04-25T10:41:56;8.13;;;7.05;;
823;SDS011;373;49.342;8.146;2023-04-25T10:44:27;6.72;;;6.03;;
823;SDS011;373;49.342;8.146;2023-04-25T10:46:55;8.45;;;6.43;;
823;SDS011;373;49.342;8.146;2023-04-25T10:49:35;7.72;;;6.18;;
823;SDS011;373;49.342;8.146;2023-04-25T10:52:25;7.35;;;5.60;;
823;SDS011;373;49.342;8.146;2023-04-25T10:57:56;6.18;;;5.05;;
823;SDS011;373;49.342;8.146;2023-04-25T11:00:39;6.10;;;4.82;;
823;SDS011;373;49.342;8.146;2023-04-25T11:03:07;6.50;;;4.93;;
823;SDS011;373;49.342;8.146;2023-04-25T11:05:35;5.80;;;4.90;;
823;SDS011;373;49.342;8.146;2023-04-25T11:08:08;5.65;;;4.75;;
823;SDS011;373;49.342;8.146;2023-04-25T11:44:41;6.30;;;4.93;;
823;SDS011;373;49.342;8.146;2023-04-25T14:22:15;5.35;;;4.15;;
823;SDS011;373;49.342;8.146;2023-04-25T14:24:42;4.32;;;3.92;;
823;SDS011;373;49.342;8.146;2023-04-25T14:27:09;6.90;;;4.65;;
823;SDS011;373;49.342;8.146;2023-04-25T14:29:36;5.85;;;4.55;;
823;SDS011;373;49.342;8.146;2023-04-25T14:32:04;4.35;;;3.80;;
823;SDS011;373;49.342;8.146;2023-04-25T14:34:31;8.55;;;4.18;;
823;SDS011;373;49.342;8.146;2023-04-25T14:36:59;5.80;;;3.85;;
823;SDS011;373;49.342;8.146;2023-04-25T14:39:27;3.50;;;3.20;;
823;SDS011;373;49.342;8.146;2023-04-25T14:41:54;4.65;;;3.55;;
823;SDS011;373;49.342;8.146;2023-04-25T14:44:21;3.72;;;3.42;;
823;SDS011;373;49.342;8.146;2023-04-25T14:46:50;5.68;;;3.78;;
823;SDS011;373;49.342;8.146;2023-04-25T14:49:17;4.30;;;3.78;;
823;SDS011;373;49.342;8.146;2023-04-25T14:51:45;6.50;;;4.43;;
823;SDS011;373;49.342;8.146;2023-04-25T14:54:12;6.32;;;3.55;;
823;SDS011;373;49.342;8.146;2023-04-25T14:56:41;5.90;;;3.90;;
823;SDS011;373;49.342;8.146;2023-04-25T14:59:08;3.88;;;3.58;;
823;SDS011;373;49.342;8.146;2023-04-25T15:01:35;4.55;;;3.25;;
823;SDS011;373;49.342;8.146;2023-04-25T15:04:03;5.75;;;4.60;;
823;SDS011;373;49.342;8.146;2023-04-25T15:06:30;6.88;;;4.07;;
823;SDS011;373;49.342;8.146;2023-04-25T15:08:57;4.65;;;3.13;;
823;SDS011;373;49.342;8.146;2023-04-25T15:11:24;4.22;;;3.47;;
823;SDS011;373;49.342;8.146;2023-04-25T15:13:53;4.78;;;4.07;;
823;SDS011;373;49.342;8.146;2023-04-25T15:16:20;4.85;;;3.58;;
823;SDS011;373;49.342;8.146;2023-04-25T15:18:47;6.10;;;3.70;;
823;SDS011;373;49.342;8.146;2023-04-25T15:21:15;4.28;;;3.58;;
823;SDS011;373;49.342;8.146;2023-04-25T15:23:42;4.93;;;3.55;;
823;SDS011;373;49.342;8.146;2023-04-25T15:26:09;6.25;;;3.58;;
823;SDS011;373;49.342;8.146;2023-04-25T15:28:37;5.38;;;4.07;;
823;SDS011;373;49.342;8.146;2023-04-25T15:31:05;5.95;;;4.07;;
823;SDS011;373;49.342;8.146;2023-04-25T15:33:33;3.88;;;3.05;;
823;SDS011;373;49.342;8.146;2023-04-25T15:36:00;4.30;;;3.25;;
823;SDS011;373;49.342;8.146;2023-04-25T15:38:28;7.38;;;3.28;;
823;SDS011;373;49.342;8.146;2023-04-25T15:40:55;5.30;;;3.40;;
823;SDS011;373;49.342;8.146;2023-04-25T15:43:22;5.60;;;3.13;;
823;SDS011;373;49.342;8.146;2023-04-25T15:45:49;6.20;;;3.20;;
823;SDS011;373;49.342;8.146;2023-04-25T15:48:18;6.00;;;3.17;;
823;SDS011;373;49.342;8.146;2023-04-25T15:50:45;5.78;;;2.60;;
823;SDS011;373;49.342;8.146;2023-04-25T15:53:12;4.55;;;3.00;;
823;SDS011;373;49.342;8.146;2023-04-25T15:55:39;7.55;;;3.22;;
823;SDS011;373;49.342;8.146;2023-04-25T15:58:06;4.32;;;3.17;;
823;SDS011;373;49.342;8.146;2023-04-25T16:00:33;7.05;;;3.63;;
823;SDS011;373;49.342;8.146;2023-04-25T16:03:02;6.43;;;3.17;;
823;SDS011;373;49.342;8.146;2023-04-25T16:05:30;4.50;;;2.90;;
823;SDS011;373;49.342;8.146;2023-04-25T16:07:58;6.07;;;3.17;;
823;SDS011;373;49.342;8.146;2023-04-25T16:10:25;5.28;;;2.97;;
823;SDS011;373;49.342;8.146;2023-04-25T16:12:52;5.65;;;2.80;;
823;SDS011;373;49.342;8.146;2023-04-25T16:15:19;4.18;;;2.63;;
823;SDS011;373;49.342;8.146;2023-04-25T16:17:46;5.75;;;2.70;;
823;SDS011;373;49.342;8.146;2023-04-25T16:20:14;5.55;;;2.72;;
823;SDS011;373;49.342;8.146;2023-04-25T16:22:43;4.57;;;3.35;;
823;SDS011;373;49.342;8.146;2023-04-25T16:25:10;3.97;;;2.72;;
823;SDS011;373;49.342;8.146;2023-04-25T16:27:37;4.47;;;3.38;;
823;SDS011;373;49.342;8.146;2023-04-25T16:30:04;4.30;;;2.72;;
823;SDS011;373;49.342;8.146;2023-04-25T16:32:33;5.20;;;2.67;;
823;SDS011;373;49.342;8.146;2023-04-25T16:35:00;3.58;;;2.53;;
823;SDS011;373;49.342;8.146;2023-04-25T16:37:28;3.65;;;2.50;;
823;SDS011;373;49.342;8.146;2023-04-25T16:39:56;5.93;;;2.92;;
823;SDS011;373;49.342;8.146;2023-04-25T16:42:23;4.95;;;2.35;;
823;SDS011;373;49.342;8.146;2023-04-25T16:44:51;4.70;;;2.42;;
823;SDS011;373;49.342;8.146;2023-04-25T16:47:18;5.00;;;2.83;;
823;SDS011;373;49.342;8.146;2023-04-25T16:49:45;4.65;;;2.80;;
823;SDS011;373;49.342;8.146;2023-04-25T16:52:12;3.50;;;2.10;;
823;SDS011;373;49.342;8.146;2023-04-25T16:54:40;5.03;;;3.80;;
823;SDS011;373;49.342;8.146;2023-04-25T16:57:08;5.95;;;4.45;;
823;SDS011;373;49.342;8.146;2023-04-25T16:59:36;4.85;;;4.43;;
823;SDS011;373;49.342;8.146;2023-04-25T17:02:03;5.43;;;4.93;;
823;SDS011;373;49.342;8.146;2023-04-25T17:04:32;5.90;;;5.30;;
823;SDS011;373;49.342;8.146;2023-04-25T17:06:59;6.82;;;5.35;;
823;SDS011;373;49.342;8.146;2023-04-25T17:09:26;5.60;;;4.97;;
823;SDS011;373;49.342;8.146;2023-04-25T17:11:53;6.70;;;5.55;;
823;SDS011;373;49.342;8.146;2023-04-25T17:14:22;5.90;;;5.40;;
823;SDS011;373;49.342;8.146;2023-04-25T17:16:49;6.85;;;5.18;;
823;SDS011;373;49.342;8.146;2023-04-25T17:19:16;5.15;;;4.75;;
823;SDS011;373;49.342;8.146;2023-04-25T17:21:43;5.95;;;5.25;;
823;SDS011;373;49.342;8.146;2023-04-25T17:24:10;6.05;;;5.22;;
823;SDS011;373;49.342;8.146;2023-04-25T17:26:39;5.07;;;4.55;;
823;SDS011;373;49.342;8.146;2023-04-25T17:29:06;5.97;;;5.38;;
823;SDS011;373;49.342;8.146;2023-04-25T17:31:35;5.45;;;4.95;;
823;SDS011;373;49.342;8.146;2023-04-25T17:34:02;6.38;;;5.78;;
823;SDS011;373;49.342;8.146;2023-04-25T17:36:29;6.43;;;5.07;;
823;SDS011;373;49.342;8.146;2023-04-25T17:38:56;5.22;;;4.82;;
823;SDS011;373;49.342;8.146;2023-04-25T17:41:24;6.97;;;6.28;;
823;SDS011;373;49.342;8.146;2023-04-25T17:43:51;9.02;;;6.07;;
823;SDS011;373;49.342;8.146;2023-04-25T17:46:19;6.07;;;5.47;;
823;SDS011;373;49.342;8.146;2023-04-25T17:48:48;5.60;;;5.13;;
823;SDS011;373;49.342;8.146;2023-04-25T17:51:18;6.57;;;5.88;;
823;SDS011;373;49.342;8.146;2023-04-25T17:53:45;8.48;;;5.70;;
823;SDS011;373;49.342;8.146;2023-04-25T17:56:13;7.13;;;6.43;;
823;SDS011;373;49.342;8.146;2023-04-25T17:58:40;6.45;;;5.85;;
823;SDS011;373;49.342;8.146;2023-04-25T18:01:09;6.30;;;5.70;;
823;SDS011;373;49.342;8.146;2023-04-25T18:03:36;5.15;;;4.40;;
823;SDS011;373;49.342;8.146;2023-04-25T18:06:06;5.13;;;4.47;;
823;SDS011;373;49.342;8.146;2023-04-25T18:08:33;6.82;;;4.57;;
823;SDS011;373;49.342;8.146;2023-04-25T18:11:01;5.82;;;5.20;;
823;SDS011;373;49.342;8.146;2023-04-25T18:13:28;6.72;;;6.03;;
823;SDS011;373;49.342;8.146;2023-04-25T18:15:56;6.05;;;4.72;;
823;SDS011;373;49.342;8.146;2023-04-25T18:18:23;6.15;;;5.20;;
823;SDS011;373;49.342;8.146;2023-04-25T18:20:57;7.75;;;5.75;;
823;SDS011;373;49.342;8.146;2023-04-25T18:23:26;5.50;;;5.00;;
823;SDS011;373;49.342;8.146;2023-04-25T18:25:53;5.60;;;5.10;;
823;SDS011;373;49.342;8.146;2023-04-25T18:28:21;6.13;;;5.60;;
823;SDS011;373;49.342;8.146;2023-04-25T18:30:48;6.00;;;5.40;;
823;SDS011;373;49.342;8.146;2023-04-25T18:33:15;6.57;;;5.88;;
823;SDS011;373;49.342;8.146;2023-04-25T18:35:42;7.28;;;6.40;;
823;SDS011;373;49.342;8.146;2023-04-25T18:38:09;7.43;;;6.63;;
823;SDS011;373;49.342;8.146;2023-04-25T18:40:39;6.28;;;5.55;;
823;SDS011;373;49.342;8.146;2023-04-25T18:43:06;6.35;;;5.70;;
823;SDS011;373;49.342;8.146;2023-04-25T18:45:34;5.93;;;5.32;;
823;SDS011;373;49.342;8.146;2023-04-25T18:48:01;5.38;;;4.88;;
823;SDS011;373;49.342;8.146;2023-04-25T18:50:28;6.15;;;5.10;;
823;SDS011;373;49.342;8.146;2023-04-25T18:52:57;6.60;;;5.20;;
823;SDS011;373;49.342;8.146;2023-04-25T18:55:25;9.48;;;5.57;;
823;SDS011;373;49.342;8.146;2023-04-25T18:57:54;6.72;;;6.05;;
823;SDS011;373;49.342;8.146;2023-04-25T19:00:21;5.68;;;5.15;;
823;SDS011;373;49.342;8.146;2023-04-25T19:02:49;6.45;;;5.80;;
823;SDS011;373;49.342;8.146;2023-04-25T19:05:16;7.72;;;6.80;;
823;SDS011;373;49.342;8.146;2023-04-25T19:07:43;9.95;;;7.85;;
823;SDS011;373;49.342;8.146;2023-04-25T19:10:11;11.57;;;6.50;;
823;SDS011;373;49.342;8.146;2023-04-25T19:12:38;6.70;;;6.07;;
823;SDS011;373;49.342;8.146;2023-04-25T19:15:07;8.02;;;6.50;;
823;SDS011;373;49.342;8.146;2023-04-25T19:17:35;5.25;;;4.75;;
823;SDS011;373;49.342;8.146;2023-04-25T19:20:02;5.57;;;5.03;;